createdAt,value
2018-03-25T00:01:13.586Z,68.97
2018-03-25T00:03:41.112Z,67.80
2018-03-25T00:06:08.599Z,60.70
2018-03-25T00:08:36.111Z,62.27
2018-03-25T00:11:03.643Z,60.73
2018-03-25T00:13:31.141Z,65.47
2018-03-25T00:15:58.634Z,77.80
2018-03-25T00:18:26.155Z,75.83
2018-03-25T00:20:53.658Z,76.10
2018-03-25T00:23:21.154Z,74.33
2018-03-25T00:25:48.691Z,87.53
2018-03-25T00:28:16.187Z,80.03
2018-03-25T00:30:43.672Z,69.93
2018-03-25T00:33:11.192Z,66.67
2018-03-25T00:35:38.707Z,70.40
2018-03-25T00:38:06.203Z,66.87
2018-03-25T00:40:33.721Z,66.23
2018-03-25T00:43:01.222Z,65.60
2018-03-25T00:45:28.758Z,76.13
2018-03-25T00:47:56.262Z,77.17
2018-03-25T00:50:23.771Z,68.67
2018-03-25T00:52:51.317Z,72.77
2018-03-25T00:55:18.789Z,76.40
2018-03-25T00:57:46.288Z,78.70
2018-03-25T01:00:13.827Z,90.00
2018-03-25T01:02:41.323Z,92.53
2018-03-25T01:05:08.840Z,96.13
2018-03-25T01:07:36.373Z,96.93
2018-03-25T01:10:03.842Z,80.00
2018-03-25T01:12:31.357Z,95.33
2018-03-25T01:14:58.886Z,86.70
2018-03-25T01:17:26.432Z,108.97
2018-03-25T01:19:53.920Z,111.43
2018-03-25T01:22:21.470Z,129.97
2018-03-25T01:24:48.961Z,143.67
2018-03-25T01:27:16.486Z,132.87
2018-03-25T01:29:44.040Z,129.90
2018-03-25T01:32:11.554Z,126.07
2018-03-25T01:34:39.042Z,113.57
2018-03-25T01:37:06.555Z,94.37
2018-03-25T01:39:34.050Z,116.57
2018-03-25T01:42:01.578Z,100.27
2018-03-25T01:44:29.078Z,116.70
2018-03-25T01:46:56.609Z,111.23
2018-03-25T01:49:24.097Z,107.73
2018-03-25T01:51:51.610Z,83.10
2018-03-25T01:54:19.102Z,83.83
2018-03-25T01:56:46.629Z,79.90
2018-03-25T01:59:14.126Z,84.87
2018-03-25T02:01:41.673Z,79.53
2018-03-25T02:04:09.163Z,94.67
2018-03-25T02:06:36.659Z,88.60
2018-03-25T02:09:04.165Z,83.20
2018-03-25T02:11:31.655Z,81.90
2018-03-25T02:13:59.182Z,82.63
2018-03-25T02:16:26.679Z,86.70
2018-03-25T02:18:54.199Z,92.27
2018-03-25T02:21:21.689Z,85.00
2018-03-25T02:23:49.213Z,81.97
2018-03-25T02:26:16.708Z,81.20
2018-03-25T02:28:44.234Z,81.60
2018-03-25T02:31:11.732Z,80.30
2018-03-25T02:33:39.271Z,84.17
2018-03-25T02:36:06.770Z,76.30
2018-03-25T02:38:34.277Z,83.13
2018-03-25T02:41:01.762Z,73.90
2018-03-25T02:43:29.287Z,72.03
2018-03-25T02:45:56.823Z,80.87
2018-03-25T02:48:24.335Z,88.30
2018-03-25T02:50:51.862Z,89.03
2018-03-25T02:53:19.404Z,84.50
2018-03-25T02:55:46.898Z,89.07
2018-03-25T02:58:14.409Z,93.67
2018-03-25T03:00:41.942Z,109.43
2018-03-25T03:03:09.426Z,91.10
2018-03-25T03:05:36.948Z,91.43
2018-03-25T03:08:04.473Z,89.97
2018-03-25T03:10:32.020Z,96.00
2018-03-25T03:12:59.512Z,83.73
2018-03-25T03:15:27.029Z,70.50
2018-03-25T03:17:54.519Z,83.77
2018-03-25T03:20:22.059Z,82.57
2018-03-25T03:22:49.566Z,94.63
2018-03-25T03:25:17.085Z,96.37
2018-03-25T03:27:44.570Z,93.97
2018-03-25T03:30:12.083Z,105.23
2018-03-25T03:32:39.606Z,100.27
2018-03-25T03:35:07.132Z,103.77
2018-03-25T03:37:34.645Z,120.33
2018-03-25T03:40:02.173Z,154.13
2018-03-25T03:42:29.687Z,176.43
2018-03-25T03:44:57.206Z,140.73
2018-03-25T03:47:24.715Z,154.03
2018-03-25T03:49:52.239Z,130.77
2018-03-25T03:52:19.737Z,126.83
2018-03-25T03:54:47.303Z,134.83
2018-03-25T03:57:14.795Z,120.53
2018-03-25T03:59:42.290Z,116.83
2018-03-25T04:02:09.839Z,125.53
2018-03-25T04:04:37.343Z,137.77
2018-03-25T04:07:04.857Z,179.27
2018-03-25T04:09:32.350Z,207.37
2018-03-25T04:11:59.884Z,215.57
2018-03-25T04:14:27.384Z,219.23
2018-03-25T04:16:54.903Z,248.67
2018-03-25T04:19:22.390Z,258.80
2018-03-25T04:21:49.906Z,246.40
2018-03-25T04:24:17.406Z,246.03
2018-03-25T04:26:44.918Z,246.70
2018-03-25T04:29:12.421Z,226.83
2018-03-25T04:31:39.950Z,179.27
2018-03-25T04:34:07.453Z,209.23
2018-03-25T04:36:35.005Z,243.13
2018-03-25T04:39:03.226Z,239.63
2018-03-25T04:41:30.748Z,192.77
2018-03-25T04:43:58.259Z,204.77
2018-03-25T04:46:25.782Z,210.63
2018-03-25T04:48:53.287Z,220.23
2018-03-25T04:51:20.816Z,226.90
2018-03-25T04:53:48.314Z,197.33
2018-03-25T04:56:15.827Z,183.10
2018-03-25T04:58:43.346Z,242.80
2018-03-25T05:01:10.847Z,274.67
2018-03-25T05:03:38.368Z,290.20
2018-03-25T05:06:05.891Z,281.23
2018-03-25T05:08:33.414Z,255.57
2018-03-25T05:11:00.930Z,254.03
2018-03-25T05:13:28.453Z,245.87
2018-03-25T05:15:55.951Z,255.43
2018-03-25T05:18:23.485Z,221.33
2018-03-25T05:20:50.984Z,240.70
2018-03-25T05:23:18.513Z,211.47
2018-03-25T05:25:46.007Z,200.77
2018-03-25T05:28:13.526Z,177.03
2018-03-25T05:30:41.076Z,137.63
2018-03-25T05:33:08.612Z,112.37
2018-03-25T05:35:36.114Z,104.77
2018-03-25T05:38:03.639Z,77.50
2018-03-25T05:40:31.160Z,82.13
2018-03-25T05:42:58.678Z,80.87
2018-03-25T05:45:26.162Z,80.10
2018-03-25T05:47:53.699Z,65.07
2018-03-25T05:50:21.198Z,67.13
2018-03-25T05:52:48.682Z,63.47
2018-03-25T05:55:16.189Z,61.80
2018-03-25T05:57:43.692Z,61.23
2018-03-25T06:00:11.258Z,64.13
2018-03-25T06:02:38.751Z,62.23
2018-03-25T06:05:06.275Z,53.03
2018-03-25T06:07:33.783Z,56.60
2018-03-25T06:10:01.289Z,61.00
2018-03-25T06:12:28.799Z,60.60
2018-03-25T06:14:56.314Z,57.63
2018-03-25T06:17:23.807Z,56.17
2018-03-25T06:19:51.315Z,43.53
2018-03-25T06:22:18.798Z,57.43
2018-03-25T06:24:46.310Z,59.50
2018-03-25T06:27:13.797Z,57.20
2018-03-25T06:29:41.303Z,58.67
2018-03-25T06:32:08.789Z,57.57
2018-03-25T06:34:36.304Z,53.10
2018-03-25T06:37:03.791Z,49.63
2018-03-25T06:39:31.306Z,48.13
2018-03-25T06:41:58.796Z,43.63
2018-03-25T06:44:26.319Z,44.50
2018-03-25T06:46:53.811Z,45.00
2018-03-25T06:49:21.308Z,44.13
2018-03-25T06:51:48.809Z,43.90
2018-03-25T06:54:16.349Z,44.57
2018-03-25T06:56:43.855Z,40.13
2018-03-25T06:59:11.349Z,46.10
2018-03-25T07:01:38.867Z,42.30
2018-03-25T07:04:06.350Z,42.27
2018-03-25T07:06:33.879Z,45.43
2018-03-25T07:09:01.364Z,40.00
2018-03-25T07:11:28.888Z,41.30
2018-03-25T07:13:56.385Z,40.03
2018-03-25T07:16:23.898Z,39.60
2018-03-25T07:18:51.391Z,38.33
2018-03-25T07:21:18.912Z,35.50
2018-03-25T07:23:46.518Z,40.00
2018-03-25T07:26:14.038Z,39.63
2018-03-25T07:28:41.635Z,39.63
2018-03-25T07:31:09.232Z,37.20
2018-03-25T07:33:36.837Z,37.80
2018-03-25T07:36:04.382Z,35.27
2018-03-25T07:38:31.883Z,38.93
2018-03-25T07:40:59.615Z,38.60
2018-03-25T07:43:27.149Z,38.27
2018-03-25T07:45:54.636Z,38.60
2018-03-25T07:48:22.409Z,39.97
2018-03-25T07:50:51.725Z,37.63
2018-03-25T07:53:19.689Z,38.20
2018-03-25T07:55:47.273Z,37.03
2018-03-25T07:58:14.783Z,39.67
2018-03-25T08:00:42.286Z,37.07
2018-03-25T08:03:09.822Z,37.13
2018-03-25T08:05:37.498Z,35.23
2018-03-25T08:08:05.026Z,37.53
2018-03-25T08:10:32.529Z,37.13
2018-03-25T08:13:00.239Z,34.33
2018-03-25T08:15:27.920Z,35.17
2018-03-25T08:17:55.458Z,38.00
2018-03-25T08:20:22.948Z,38.37
2018-03-25T08:22:50.675Z,34.77
2018-03-25T08:25:18.319Z,38.33
2018-03-25T08:27:45.883Z,35.77
2018-03-25T08:30:13.384Z,36.37
2018-03-25T08:32:40.911Z,34.27
2018-03-25T08:35:08.399Z,35.73
2018-03-25T08:37:35.924Z,34.90
2018-03-25T08:40:03.415Z,33.40
2018-03-25T08:42:30.907Z,36.23
2018-03-25T08:44:58.417Z,37.43
2018-03-25T08:47:26.220Z,34.47
2018-03-25T08:49:53.737Z,33.97
2018-03-25T08:52:21.252Z,33.43
2018-03-25T08:54:48.761Z,35.23
2018-03-25T08:57:16.246Z,35.13
2018-03-25T08:59:43.774Z,34.33
2018-03-25T09:02:11.284Z,38.60
2018-03-25T09:04:38.821Z,39.67
2018-03-25T09:07:06.316Z,38.90
2018-03-25T09:09:33.836Z,33.87
2018-03-25T09:12:01.350Z,37.90
2018-03-25T09:14:28.859Z,34.33
2018-03-25T09:16:56.349Z,36.73
2018-03-25T09:19:23.909Z,36.43
2018-03-25T09:21:51.408Z,41.20
2018-03-25T09:24:18.922Z,36.17
2018-03-25T09:26:46.423Z,39.77
2018-03-25T09:29:13.934Z,38.73
2018-03-25T09:31:41.417Z,38.97
2018-03-25T09:34:08.902Z,39.77
2018-03-25T09:36:36.415Z,40.53
2018-03-25T09:39:03.913Z,38.63
2018-03-25T09:41:31.432Z,39.67
2018-03-25T09:43:58.963Z,38.87
2018-03-25T09:46:26.446Z,41.57
2018-03-25T09:48:53.942Z,37.83
2018-03-25T09:51:21.459Z,35.50
2018-03-25T09:53:48.951Z,40.30
2018-03-25T09:56:16.466Z,39.70
2018-03-25T09:58:43.985Z,38.90
2018-03-25T10:04:16.391Z,37.30
2018-03-25T10:06:43.927Z,36.17
2018-03-25T10:09:11.422Z,34.63
2018-03-25T10:11:38.943Z,36.53
2018-03-25T10:14:06.448Z,35.13
2018-03-25T10:16:33.976Z,37.07
2018-03-25T10:19:01.466Z,34.80
2018-03-25T10:21:28.987Z,34.80
2018-03-25T10:23:56.479Z,36.03
2018-03-25T10:26:23.986Z,37.07
2018-03-25T10:28:51.483Z,38.10
2018-03-25T10:31:19.006Z,36.27
2018-03-25T10:33:46.507Z,35.73
2018-03-25T10:36:14.042Z,33.50
2018-03-25T10:38:41.534Z,34.27
2018-03-25T10:41:09.019Z,34.83
2018-03-25T10:43:36.538Z,36.57
2018-03-25T10:46:04.029Z,37.33
2018-03-25T10:48:31.553Z,35.63
2018-03-25T10:50:59.047Z,32.67
2018-03-25T10:53:26.563Z,33.57
2018-03-25T10:55:54.056Z,32.70
2018-03-25T10:58:21.586Z,38.90
2018-03-25T11:00:49.075Z,31.07
2018-03-25T11:03:16.595Z,34.10
2018-03-25T11:05:44.085Z,32.63
2018-03-25T11:08:11.601Z,33.47
2018-03-25T11:10:39.119Z,31.73
2018-03-25T11:13:06.627Z,33.13
2018-03-25T11:15:34.119Z,34.50
2018-03-25T11:18:01.635Z,33.33
2018-03-25T11:20:29.143Z,32.83
2018-03-25T11:22:56.654Z,33.43
2018-03-25T11:25:24.142Z,37.73
2018-03-25T11:27:51.663Z,34.47
2018-03-25T11:30:19.150Z,32.27
2018-03-25T11:32:46.658Z,33.10
2018-03-25T11:35:14.147Z,32.83
2018-03-25T11:37:41.638Z,33.53
2018-03-25T11:40:09.148Z,35.70
2018-03-25T11:42:36.637Z,36.20
2018-03-25T11:45:04.149Z,36.60
2018-03-25T11:47:31.681Z,33.57
2018-03-25T11:49:59.170Z,36.30
2018-03-25T11:52:26.659Z,35.33
2018-03-25T11:54:54.174Z,35.53
2018-03-25T11:57:21.658Z,34.30
2018-03-25T11:59:49.165Z,36.63
2018-03-25T12:02:16.659Z,34.90
2018-03-25T12:04:44.179Z,34.03
2018-03-25T12:07:11.675Z,31.17
2018-03-25T12:09:39.191Z,32.17
2018-03-25T12:12:06.678Z,33.60
2018-03-25T12:14:34.191Z,35.03
2018-03-25T12:17:01.695Z,32.93
2018-03-25T12:19:29.211Z,33.90
2018-03-25T12:21:56.715Z,32.90
2018-03-25T12:24:24.226Z,31.70
2018-03-25T12:26:51.718Z,31.87
2018-03-25T12:29:19.203Z,30.93
2018-03-25T12:31:46.712Z,32.07
2018-03-25T12:34:14.207Z,32.00
2018-03-25T12:36:41.714Z,29.30
2018-03-25T12:39:09.211Z,34.47
2018-03-25T12:41:36.768Z,33.33
2018-03-25T12:44:04.259Z,34.50
2018-03-25T12:46:31.798Z,31.97
2018-03-25T12:48:59.291Z,33.10
2018-03-25T12:51:26.798Z,35.37
2018-03-25T12:53:54.290Z,31.73
2018-03-25T12:56:21.802Z,31.73
2018-03-25T12:58:49.288Z,30.87
2018-03-25T13:01:16.831Z,30.37
2018-03-25T13:03:44.319Z,33.27
2018-03-25T13:06:11.834Z,31.53
2018-03-25T13:08:39.328Z,29.90
2018-03-25T13:11:06.842Z,29.27
2018-03-25T13:13:34.330Z,30.53
2018-03-25T13:16:01.843Z,29.70
2018-03-25T13:18:29.355Z,30.97
2018-03-25T13:20:56.879Z,29.90
2018-03-25T13:23:24.372Z,31.53
2018-03-25T13:25:51.862Z,32.53
2018-03-25T13:28:19.402Z,32.10
2018-03-25T13:30:46.890Z,32.07
2018-03-25T13:33:14.407Z,29.97
2018-03-25T13:35:41.889Z,31.53
2018-03-25T13:38:09.414Z,26.27
2018-03-25T13:40:36.907Z,33.20
2018-03-25T13:43:04.428Z,29.93
2018-03-25T13:45:31.914Z,30.93
2018-03-25T13:47:59.431Z,31.93
2018-03-25T13:50:26.921Z,43.70
2018-03-25T13:52:54.434Z,32.40
2018-03-25T13:55:21.918Z,29.47
2018-03-25T13:57:49.426Z,31.13
2018-03-25T14:00:16.918Z,37.93
2018-03-25T14:02:44.431Z,33.83
2018-03-25T14:05:11.918Z,34.10
2018-03-25T14:07:39.447Z,31.43
2018-03-25T14:10:06.930Z,34.20
2018-03-25T14:12:34.438Z,30.27
2018-03-25T14:15:02.003Z,32.23
2018-03-25T14:17:29.577Z,30.43
2018-03-25T14:19:57.036Z,31.43
2018-03-25T14:22:24.522Z,31.13
2018-03-25T14:24:52.056Z,32.60
2018-03-25T14:27:19.543Z,26.47
2018-03-25T14:29:47.112Z,25.43
2018-03-25T14:32:14.570Z,26.83
2018-03-25T14:34:42.083Z,28.07
2018-03-25T14:37:09.584Z,27.00
2018-03-25T14:39:37.097Z,27.53
2018-03-25T14:42:04.586Z,27.67
2018-03-25T14:44:32.107Z,27.63
2018-03-25T14:46:59.601Z,27.70
2018-03-25T14:49:27.114Z,27.80
2018-03-25T14:51:54.598Z,28.63
2018-03-25T14:54:22.127Z,25.90
2018-03-25T14:56:49.623Z,27.17
2018-03-25T14:59:17.141Z,29.23
2018-03-25T15:01:44.643Z,27.77
2018-03-25T15:04:12.167Z,27.93
2018-03-25T15:06:39.658Z,28.27
2018-03-25T15:09:07.178Z,26.20
2018-03-25T15:11:34.666Z,26.90
2018-03-25T15:14:02.182Z,27.97
2018-03-25T15:16:29.670Z,29.10
2018-03-25T15:18:57.159Z,27.13
2018-03-25T15:21:24.681Z,28.10
2018-03-25T15:23:52.174Z,28.00
2018-03-25T15:26:19.690Z,27.97
2018-03-25T15:28:47.187Z,27.73
2018-03-25T15:31:14.739Z,29.93
2018-03-25T15:33:42.226Z,29.03
2018-03-25T15:36:09.744Z,29.33
2018-03-25T15:38:37.239Z,27.27
2018-03-25T15:41:04.786Z,27.93
2018-03-25T15:43:32.279Z,26.80
2018-03-25T15:45:59.805Z,27.60
2018-03-25T15:48:27.294Z,30.80
2018-03-25T15:50:54.810Z,30.33
2018-03-25T15:53:22.331Z,29.40
2018-03-25T15:55:49.852Z,30.23
2018-03-25T15:58:17.369Z,26.47
2018-03-25T16:00:44.891Z,29.67
2018-03-25T16:03:12.382Z,29.87
2018-03-25T16:05:39.907Z,29.67
2018-03-25T16:08:07.398Z,31.77
2018-03-25T16:10:34.923Z,28.10
2018-03-25T16:13:02.417Z,34.00
2018-03-25T16:15:29.906Z,28.60
2018-03-25T16:17:57.414Z,29.60
2018-03-25T16:20:24.936Z,30.07
2018-03-25T16:22:52.458Z,29.17
2018-03-25T16:25:19.961Z,27.50
2018-03-25T16:27:47.466Z,30.60
2018-03-25T16:30:14.963Z,28.43
2018-03-25T16:32:42.483Z,31.63
2018-03-25T16:35:09.983Z,26.90
2018-03-25T16:37:37.506Z,30.37
2018-03-25T16:40:04.995Z,30.10
2018-03-25T16:42:32.515Z,27.27
2018-03-25T16:45:00.013Z,28.40
2018-03-25T16:47:27.535Z,29.67
2018-03-25T16:49:55.025Z,29.33
2018-03-25T16:52:22.543Z,31.53
2018-03-25T16:54:50.035Z,30.90
2018-03-25T16:57:17.547Z,28.83
2018-03-25T16:59:45.044Z,29.03
2018-03-25T17:02:12.563Z,31.77
2018-03-25T17:04:40.063Z,28.00
2018-03-25T17:07:07.559Z,32.20
2018-03-25T17:09:35.095Z,29.47
2018-03-25T17:12:02.581Z,31.23
2018-03-25T17:14:30.100Z,33.10
2018-03-25T17:16:57.599Z,29.20
2018-03-25T17:19:25.119Z,31.47
2018-03-25T17:21:52.657Z,33.10
2018-03-25T17:24:20.174Z,27.37
2018-03-25T17:26:47.667Z,35.60
2018-03-25T17:29:15.186Z,32.00
2018-03-25T17:31:42.728Z,35.07
2018-03-25T17:34:10.338Z,30.90
2018-03-25T17:36:37.858Z,34.07
2018-03-25T17:39:05.635Z,32.23
2018-03-25T17:41:33.158Z,33.23
2018-03-25T17:44:00.838Z,31.40
2018-03-25T17:46:28.471Z,30.87
2018-03-25T17:48:56.178Z,31.10
2018-03-25T17:51:23.706Z,32.97
2018-03-25T17:53:51.401Z,38.83
2018-03-25T17:56:18.923Z,33.70
2018-03-25T17:58:46.565Z,32.93
2018-03-25T18:01:14.079Z,31.10
2018-03-25T18:03:41.770Z,29.90
2018-03-25T18:06:09.294Z,35.30
2018-03-25T18:08:36.798Z,31.80
2018-03-25T18:11:04.332Z,33.40
2018-03-25T18:13:31.897Z,36.53
2018-03-25T18:15:59.406Z,32.40
2018-03-25T18:18:26.900Z,31.73
2018-03-25T18:20:56.290Z,33.60
2018-03-25T18:23:22.248Z,34.77
2018-03-25T18:25:49.779Z,31.17
2018-03-25T18:28:17.414Z,35.97
2018-03-25T18:30:44.931Z,33.30
2018-03-25T18:33:12.427Z,35.53
2018-03-25T18:35:39.925Z,41.57
2018-03-25T18:38:07.442Z,34.93
2018-03-25T18:40:35.124Z,40.37
2018-03-25T18:43:02.677Z,37.30
2018-03-25T18:45:30.217Z,39.20
2018-03-25T18:47:57.740Z,42.33
2018-03-25T18:50:25.281Z,36.50
2018-03-25T18:52:52.879Z,37.23
2018-03-25T18:55:20.414Z,34.93
2018-03-25T18:57:47.900Z,35.73
2018-03-25T19:00:15.640Z,38.57
2018-03-25T19:02:43.150Z,38.13
2018-03-25T19:05:10.641Z,36.00
2018-03-25T19:07:38.458Z,38.27
2018-03-25T19:10:05.988Z,43.30
2018-03-25T19:12:33.498Z,45.83
2018-03-25T19:15:00.988Z,45.63
2018-03-25T19:17:28.519Z,44.63
2018-03-25T19:19:56.012Z,49.13
2018-03-25T19:22:23.518Z,64.63
2018-03-25T19:24:51.004Z,67.00
2018-03-25T19:27:18.518Z,57.40
2018-03-25T19:29:46.007Z,53.27
2018-03-25T19:32:13.528Z,53.27
2018-03-25T19:34:41.028Z,58.70
2018-03-25T19:37:08.533Z,57.03
2018-03-25T19:39:36.019Z,59.53
2018-03-25T19:42:03.555Z,51.93
2018-03-25T19:44:31.054Z,55.47
2018-03-25T19:46:58.572Z,55.03
2018-03-25T19:49:26.067Z,45.93
2018-03-25T19:51:53.590Z,50.83
2018-03-25T19:54:21.083Z,50.73
2018-03-25T19:56:48.567Z,50.57
2018-03-25T19:59:16.083Z,53.77
2018-03-25T20:01:43.574Z,66.40
2018-03-25T20:04:11.083Z,63.77
2018-03-25T20:06:38.575Z,58.13
2018-03-25T20:09:06.090Z,58.00
2018-03-25T20:11:33.597Z,54.13
2018-03-25T20:14:01.139Z,61.80
2018-03-25T20:16:28.647Z,59.07
2018-03-25T20:18:56.169Z,55.80
2018-03-25T20:21:23.663Z,67.37
2018-03-25T20:23:51.188Z,65.83
2018-03-25T20:26:18.682Z,58.53
2018-03-25T20:28:46.227Z,56.80
2018-03-25T20:31:13.865Z,57.00
2018-03-25T20:33:41.390Z,57.13
2018-03-25T20:36:09.032Z,68.23
2018-03-25T20:38:36.681Z,58.30
2018-03-25T20:41:04.203Z,67.00
2018-03-25T20:43:31.853Z,68.17
2018-03-25T20:45:59.356Z,63.60
2018-03-25T20:48:27.127Z,57.13
2018-03-25T20:50:54.680Z,61.30
2018-03-25T20:53:22.161Z,57.00
2018-03-25T20:55:49.686Z,60.63
2018-03-25T20:58:17.170Z,72.53
2018-03-25T21:00:44.692Z,63.83
2018-03-25T21:03:12.187Z,60.27
2018-03-25T21:05:39.747Z,61.00
2018-03-25T21:08:07.351Z,58.23
2018-03-25T21:10:34.909Z,62.77
2018-03-25T21:13:02.570Z,57.83
2018-03-25T21:15:30.098Z,58.67
2018-03-25T21:17:57.585Z,56.57
2018-03-25T21:20:25.303Z,64.40
2018-03-25T21:22:52.806Z,60.20
2018-03-25T21:25:20.332Z,58.50
2018-03-25T21:27:48.007Z,65.10
2018-03-25T21:30:15.541Z,54.73
2018-03-25T21:32:43.076Z,55.67
2018-03-25T21:35:10.611Z,57.53
2018-03-25T21:37:38.247Z,64.17
2018-03-25T21:40:05.775Z,65.53
2018-03-25T21:42:33.262Z,62.90
2018-03-25T21:45:00.759Z,63.43
2018-03-25T21:47:28.270Z,63.67
2018-03-25T21:49:55.771Z,67.40
2018-03-25T21:52:23.296Z,67.67
2018-03-25T21:54:50.781Z,62.13
2018-03-25T21:57:18.322Z,59.53
2018-03-25T21:59:45.819Z,69.17
2018-03-25T22:02:13.335Z,67.60
2018-03-25T22:04:40.835Z,64.50
2018-03-25T22:07:08.355Z,71.73
2018-03-25T22:09:35.842Z,75.03
2018-03-25T22:12:03.356Z,60.40
2018-03-25T22:14:30.851Z,65.80
2018-03-25T22:16:58.378Z,62.00
2018-03-25T22:19:25.870Z,56.17
2018-03-25T22:21:53.391Z,58.63
2018-03-25T22:24:20.882Z,57.60
2018-03-25T22:26:48.435Z,58.47
2018-03-25T22:29:15.918Z,66.90
2018-03-25T22:31:43.436Z,60.83
2018-03-25T22:34:10.918Z,66.37
2018-03-25T22:36:38.429Z,64.70
2018-03-25T22:39:05.918Z,68.93
2018-03-25T22:41:33.437Z,65.13
2018-03-25T22:44:00.945Z,56.57
2018-03-25T22:46:28.437Z,59.53
2018-03-25T22:48:55.950Z,60.23
2018-03-25T22:51:23.447Z,60.70
2018-03-25T22:53:50.966Z,59.03
2018-03-25T22:56:18.453Z,58.03
2018-03-25T22:58:45.970Z,53.40
2018-03-25T23:01:13.458Z,53.23
2018-03-25T23:03:40.970Z,50.73
2018-03-25T23:06:08.454Z,48.13
2018-03-25T23:08:35.974Z,53.03
2018-03-25T23:11:03.483Z,51.73
2018-03-25T23:13:31.002Z,51.97
2018-03-25T23:15:58.491Z,51.37
2018-03-25T23:18:25.998Z,52.07
2018-03-25T23:20:53.490Z,51.80
2018-03-25T23:23:21.011Z,51.97
2018-03-25T23:25:48.531Z,50.63
2018-03-25T23:28:16.050Z,51.70
2018-03-25T23:30:43.538Z,52.03
2018-03-25T23:33:11.022Z,50.93
2018-03-25T23:35:38.546Z,46.27
2018-03-25T23:38:06.042Z,45.07
2018-03-25T23:40:33.603Z,46.50
2018-03-25T23:43:01.094Z,44.13
2018-03-25T23:45:28.621Z,45.50
2018-03-25T23:47:56.106Z,51.60
2018-03-25T23:50:23.619Z,46.17
2018-03-25T23:52:51.106Z,49.77
2018-03-25T23:55:18.638Z,44.60
2018-03-25T23:57:46.122Z,46.53
